sensor_id;sensor_type;location;lat;lon;timestamp;P1;durP1;ratioP1;P2;durP2;ratioP2
54408;SDS011;40315;48.620;9.828;2022-10-10T00:01:22;5.93;;;5.22;;
54408;SDS011;40315;48.620;9.828;2022-10-10T00:03:50;6.15;;;5.03;;
54408;SDS011;40315;48.620;9.828;2022-10-10T00:06:18;6.35;;;4.78;;
54408;SDS011;40315;48.620;9.828;2022-10-10T00:08:45;7.13;;;5.05;;
54408;SDS011;40315;48.620;9.828;2022-10-10T00:11:13;6.13;;;4.90;;
54408;SDS011;40315;48.620;9.828;2022-10-10T00:13:48;7.45;;;5.20;;
54408;SDS011;40315;48.620;9.828;2022-10-10T00:16:16;6.88;;;5.20;;
54408;SDS011;40315;48.620;9.828;2022-10-10T00:18:44;6.30;;;4.63;;
54408;SDS011;40315;48.620;9.828;2022-10-10T00:21:12;10.45;;;5.80;;
54408;SDS011;40315;48.620;9.828;2022-10-10T00:23:40;6.25;;;5.00;;
54408;SDS011;40315;48.620;9.828;2022-10-10T00:26:07;7.40;;;5.72;;
54408;SDS011;40315;48.620;9.828;2022-10-10T00:28:34;6.20;;;5.45;;
54408;SDS011;40315;48.620;9.828;2022-10-10T00:31:04;8.43;;;5.63;;
54408;SDS011;40315;48.620;9.828;2022-10-10T00:33:31;7.28;;;5.20;;
54408;SDS011;40315;48.620;9.828;2022-10-10T00:35:58;8.15;;;5.18;;
54408;SDS011;40315;48.620;9.828;2022-10-10T00:38:25;7.70;;;5.32;;
54408;SDS011;40315;48.620;9.828;2022-10-10T00:40:53;7.82;;;5.32;;
54408;SDS011;40315;48.620;9.828;2022-10-10T00:43:21;8.40;;;5.38;;
54408;SDS011;40315;48.620;9.828;2022-10-10T00:45:49;7.18;;;5.40;;
54408;SDS011;40315;48.620;9.828;2022-10-10T00:48:19;7.50;;;5.63;;
54408;SDS011;40315;48.620;9.828;2022-10-10T00:50:51;9.45;;;5.68;;
54408;SDS011;40315;48.620;9.828;2022-10-10T00:53:24;7.47;;;5.53;;
54408;SDS011;40315;48.620;9.828;2022-10-10T00:55:55;8.88;;;5.88;;
54408;SDS011;40315;48.620;9.828;2022-10-10T00:58:23;7.32;;;5.68;;
54408;SDS011;40315;48.620;9.828;2022-10-10T01:03:27;8.90;;;5.97;;
54408;SDS011;40315;48.620;9.828;2022-10-10T01:05:56;10.85;;;6.72;;
54408;SDS011;40315;48.620;9.828;2022-10-10T01:08:25;9.00;;;6.03;;
54408;SDS011;40315;48.620;9.828;2022-10-10T01:13:43;8.57;;;5.65;;
54408;SDS011;40315;48.620;9.828;2022-10-10T01:16:17;9.52;;;6.95;;
54408;SDS011;40315;48.620;9.828;2022-10-10T01:18:53;10.32;;;6.72;;
54408;SDS011;40315;48.620;9.828;2022-10-10T01:21:27;11.50;;;7.00;;
54408;SDS011;40315;48.620;9.828;2022-10-10T01:24:08;12.05;;;7.05;;
54408;SDS011;40315;48.620;9.828;2022-10-10T01:27:12;9.70;;;7.40;;
54408;SDS011;40315;48.620;9.828;2022-10-10T01:29:49;10.32;;;7.28;;
54408;SDS011;40315;48.620;9.828;2022-10-10T01:32:24;9.75;;;7.80;;
54408;SDS011;40315;48.620;9.828;2022-10-10T01:35:07;10.23;;;7.43;;
54408;SDS011;40315;48.620;9.828;2022-10-10T01:37:43;9.95;;;6.82;;
54408;SDS011;40315;48.620;9.828;2022-10-10T01:40:17;10.63;;;7.22;;
54408;SDS011;40315;48.620;9.828;2022-10-10T01:46:15;12.32;;;7.60;;
54408;SDS011;40315;48.620;9.828;2022-10-10T01:48:43;12.57;;;8.38;;
54408;SDS011;40315;48.620;9.828;2022-10-10T01:51:18;13.50;;;8.75;;
54408;SDS011;40315;48.620;9.828;2022-10-10T01:53:58;12.82;;;8.60;;
54408;SDS011;40315;48.620;9.828;2022-10-10T01:56:34;16.45;;;10.82;;
54408;SDS011;40315;48.620;9.828;2022-10-10T01:59:11;14.73;;;10.23;;
54408;SDS011;40315;48.620;9.828;2022-10-10T02:01:52;17.40;;;10.77;;
54408;SDS011;40315;48.620;9.828;2022-10-10T02:04:24;19.48;;;12.25;;
54408;SDS011;40315;48.620;9.828;2022-10-10T02:06:56;15.30;;;10.85;;
54408;SDS011;40315;48.620;9.828;2022-10-10T02:09:27;12.25;;;9.50;;
54408;SDS011;40315;48.620;9.828;2022-10-10T02:11:59;14.18;;;10.13;;
54408;SDS011;40315;48.620;9.828;2022-10-10T02:14:29;13.57;;;9.25;;
54408;SDS011;40315;48.620;9.828;2022-10-10T02:17:02;11.52;;;8.95;;
54408;SDS011;40315;48.620;9.828;2022-10-10T02:19:31;13.65;;;8.82;;
54408;SDS011;40315;48.620;9.828;2022-10-10T02:21:59;13.68;;;9.13;;
54408;SDS011;40315;48.620;9.828;2022-10-10T02:24:27;13.30;;;9.32;;
54408;SDS011;40315;48.620;9.828;2022-10-10T02:26:55;11.77;;;9.13;;
54408;SDS011;40315;48.620;9.828;2022-10-10T02:29:29;13.13;;;9.13;;
54408;SDS011;40315;48.620;9.828;2022-10-10T02:32:01;13.43;;;9.13;;
54408;SDS011;40315;48.620;9.828;2022-10-10T02:34:35;14.00;;;9.50;;
54408;SDS011;40315;48.620;9.828;2022-10-10T02:37:06;13.18;;;9.32;;
54408;SDS011;40315;48.620;9.828;2022-10-10T02:39:40;13.73;;;9.43;;
54408;SDS011;40315;48.620;9.828;2022-10-10T02:42:08;11.63;;;9.07;;
54408;SDS011;40315;48.620;9.828;2022-10-10T02:44:36;13.52;;;9.45;;
54408;SDS011;40315;48.620;9.828;2022-10-10T02:47:06;11.75;;;8.63;;
54408;SDS011;40315;48.620;9.828;2022-10-10T02:49:34;13.82;;;8.55;;
54408;SDS011;40315;48.620;9.828;2022-10-10T02:52:02;12.55;;;9.45;;
54408;SDS011;40315;48.620;9.828;2022-10-10T02:54:29;11.98;;;8.82;;
54408;SDS011;40315;48.620;9.828;2022-10-10T02:56:57;15.05;;;9.63;;
54408;SDS011;40315;48.620;9.828;2022-10-10T02:59:24;13.07;;;8.70;;
54408;SDS011;40315;48.620;9.828;2022-10-10T03:01:52;13.90;;;10.07;;
54408;SDS011;40315;48.620;9.828;2022-10-10T03:04:20;11.55;;;8.70;;
54408;SDS011;40315;48.620;9.828;2022-10-10T03:06:48;12.05;;;8.57;;
54408;SDS011;40315;48.620;9.828;2022-10-10T03:09:15;12.85;;;8.70;;
54408;SDS011;40315;48.620;9.828;2022-10-10T03:11:43;12.43;;;9.10;;
54408;SDS011;40315;48.620;9.828;2022-10-10T03:14:10;13.00;;;8.98;;
54408;SDS011;40315;48.620;9.828;2022-10-10T03:16:39;13.13;;;9.75;;
54408;SDS011;40315;48.620;9.828;2022-10-10T03:19:06;13.80;;;9.50;;
54408;SDS011;40315;48.620;9.828;2022-10-10T03:21:38;14.40;;;9.80;;
54408;SDS011;40315;48.620;9.828;2022-10-10T03:24:06;14.07;;;9.32;;
54408;SDS011;40315;48.620;9.828;2022-10-10T03:26:33;13.18;;;9.98;;
54408;SDS011;40315;48.620;9.828;2022-10-10T03:29:01;12.05;;;9.40;;
54408;SDS011;40315;48.620;9.828;2022-10-10T03:31:28;11.32;;;9.30;;
54408;SDS011;40315;48.620;9.828;2022-10-10T03:33:56;11.00;;;8.95;;
54408;SDS011;40315;48.620;9.828;2022-10-10T03:36:23;12.57;;;9.23;;
54408;SDS011;40315;48.620;9.828;2022-10-10T03:38:52;11.23;;;8.93;;
54408;SDS011;40315;48.620;9.828;2022-10-10T03:41:22;13.43;;;8.98;;
54408;SDS011;40315;48.620;9.828;2022-10-10T03:44:00;14.48;;;8.77;;
54408;SDS011;40315;48.620;9.828;2022-10-10T03:46:30;11.80;;;9.00;;
54408;SDS011;40315;48.620;9.828;2022-10-10T03:48:57;14.98;;;9.50;;
54408;SDS011;40315;48.620;9.828;2022-10-10T03:51:24;13.02;;;9.35;;
54408;SDS011;40315;48.620;9.828;2022-10-10T03:53:55;10.88;;;8.50;;
54408;SDS011;40315;48.620;9.828;2022-10-10T03:56:22;12.43;;;8.82;;
54408;SDS011;40315;48.620;9.828;2022-10-10T03:58:49;12.25;;;8.50;;
54408;SDS011;40315;48.620;9.828;2022-10-10T04:01:17;9.88;;;7.60;;
54408;SDS011;40315;48.620;9.828;2022-10-10T04:03:44;10.98;;;8.43;;
54408;SDS011;40315;48.620;9.828;2022-10-10T04:06:12;11.23;;;8.90;;
54408;SDS011;40315;48.620;9.828;2022-10-10T04:08:39;11.10;;;8.65;;
54408;SDS011;40315;48.620;9.828;2022-10-10T04:11:08;11.45;;;9.45;;
54408;SDS011;40315;48.620;9.828;2022-10-10T04:13:38;11.52;;;8.65;;
54408;SDS011;40315;48.620;9.828;2022-10-10T04:16:05;13.90;;;10.27;;
54408;SDS011;40315;48.620;9.828;2022-10-10T04:18:32;12.48;;;10.20;;
54408;SDS011;40315;48.620;9.828;2022-10-10T04:21:00;15.77;;;10.90;;
54408;SDS011;40315;48.620;9.828;2022-10-10T04:23:29;14.30;;;10.57;;
54408;SDS011;40315;48.620;9.828;2022-10-10T04:25:59;14.63;;;10.38;;
54408;SDS011;40315;48.620;9.828;2022-10-10T04:28:28;16.40;;;10.90;;
54408;SDS011;40315;48.620;9.828;2022-10-10T04:30:55;15.95;;;10.85;;
54408;SDS011;40315;48.620;9.828;2022-10-10T04:33:22;14.70;;;11.13;;
54408;SDS011;40315;48.620;9.828;2022-10-10T04:35:49;15.98;;;11.45;;
54408;SDS011;40315;48.620;9.828;2022-10-10T04:38:16;13.93;;;10.57;;
54408;SDS011;40315;48.620;9.828;2022-10-10T04:40:50;13.70;;;9.63;;
54408;SDS011;40315;48.620;9.828;2022-10-10T04:43:18;14.52;;;10.18;;
54408;SDS011;40315;48.620;9.828;2022-10-10T04:45:46;13.40;;;9.52;;
54408;SDS011;40315;48.620;9.828;2022-10-10T04:48:13;14.25;;;9.95;;
54408;SDS011;40315;48.620;9.828;2022-10-10T04:50:41;12.43;;;9.13;;
54408;SDS011;40315;48.620;9.828;2022-10-10T04:53:08;11.50;;;9.15;;
54408;SDS011;40315;48.620;9.828;2022-10-10T04:55:35;12.82;;;9.20;;
54408;SDS011;40315;48.620;9.828;2022-10-10T04:58:02;12.68;;;9.60;;
54408;SDS011;40315;48.620;9.828;2022-10-10T05:00:29;11.18;;;9.05;;
54408;SDS011;40315;48.620;9.828;2022-10-10T05:02:57;10.68;;;8.25;;
54408;SDS011;40315;48.620;9.828;2022-10-10T05:05:24;11.25;;;8.63;;
54408;SDS011;40315;48.620;9.828;2022-10-10T05:07:51;9.18;;;7.60;;
54408;SDS011;40315;48.620;9.828;2022-10-10T05:10:18;10.18;;;8.50;;
54408;SDS011;40315;48.620;9.828;2022-10-10T05:12:45;12.38;;;7.95;;
54408;SDS011;40315;48.620;9.828;2022-10-10T05:15:13;11.48;;;7.60;;
54408;SDS011;40315;48.620;9.828;2022-10-10T05:17:40;10.82;;;7.88;;
54408;SDS011;40315;48.620;9.828;2022-10-10T05:20:08;11.63;;;8.73;;
54408;SDS011;40315;48.620;9.828;2022-10-10T05:22:36;11.02;;;8.98;;
54408;SDS011;40315;48.620;9.828;2022-10-10T05:25:06;12.52;;;8.55;;
54408;SDS011;40315;48.620;9.828;2022-10-10T05:27:36;9.57;;;8.23;;
54408;SDS011;40315;48.620;9.828;2022-10-10T05:30:03;9.35;;;8.23;;
54408;SDS011;40315;48.620;9.828;2022-10-10T05:32:33;11.32;;;8.20;;
54408;SDS011;40315;48.620;9.828;2022-10-10T05:35:00;8.57;;;7.55;;
54408;SDS011;40315;48.620;9.828;2022-10-10T05:37:29;11.05;;;8.05;;
54408;SDS011;40315;48.620;9.828;2022-10-10T05:39:59;10.93;;;8.10;;
54408;SDS011;40315;48.620;9.828;2022-10-10T05:42:28;10.20;;;8.43;;
54408;SDS011;40315;48.620;9.828;2022-10-10T05:44:55;8.93;;;8.02;;
54408;SDS011;40315;48.620;9.828;2022-10-10T05:47:22;12.00;;;8.07;;
54408;SDS011;40315;48.620;9.828;2022-10-10T05:49:52;8.98;;;7.35;;
54408;SDS011;40315;48.620;9.828;2022-10-10T05:52:19;11.10;;;7.50;;
54408;SDS011;40315;48.620;9.828;2022-10-10T05:54:48;11.52;;;7.70;;
54408;SDS011;40315;48.620;9.828;2022-10-10T05:57:15;9.45;;;7.68;;
54408;SDS011;40315;48.620;9.828;2022-10-10T05:59:42;11.32;;;8.20;;
54408;SDS011;40315;48.620;9.828;2022-10-10T06:02:10;12.10;;;8.43;;
54408;SDS011;40315;48.620;9.828;2022-10-10T06:04:37;11.13;;;8.40;;
54408;SDS011;40315;48.620;9.828;2022-10-10T06:07:04;10.88;;;8.30;;
54408;SDS011;40315;48.620;9.828;2022-10-10T06:09:31;11.23;;;8.55;;
54408;SDS011;40315;48.620;9.828;2022-10-10T06:11:59;9.70;;;7.53;;
54408;SDS011;40315;48.620;9.828;2022-10-10T06:14:26;9.00;;;6.97;;
54408;SDS011;40315;48.620;9.828;2022-10-10T06:16:53;10.63;;;7.90;;
54408;SDS011;40315;48.620;9.828;2022-10-10T06:19:20;9.75;;;7.38;;
54408;SDS011;40315;48.620;9.828;2022-10-10T06:21:48;10.90;;;8.82;;
54408;SDS011;40315;48.620;9.828;2022-10-10T06:24:15;10.05;;;7.90;;
54408;SDS011;40315;48.620;9.828;2022-10-10T06:26:41;9.00;;;7.53;;
54408;SDS011;40315;48.620;9.828;2022-10-10T06:29:10;8.93;;;7.65;;
54408;SDS011;40315;48.620;9.828;2022-10-10T06:31:39;7.88;;;6.68;;
54408;SDS011;40315;48.620;9.828;2022-10-10T06:34:06;9.15;;;7.22;;
54408;SDS011;40315;48.620;9.828;2022-10-10T06:36:33;9.55;;;7.53;;
54408;SDS011;40315;48.620;9.828;2022-10-10T06:39:03;9.10;;;7.63;;
54408;SDS011;40315;48.620;9.828;2022-10-10T06:41:30;9.07;;;7.13;;
54408;SDS011;40315;48.620;9.828;2022-10-10T06:44:10;9.50;;;7.47;;
54408;SDS011;40315;48.620;9.828;2022-10-10T06:46:37;10.88;;;7.25;;
54408;SDS011;40315;48.620;9.828;2022-10-10T06:49:04;9.45;;;7.20;;
54408;SDS011;40315;48.620;9.828;2022-10-10T06:51:31;10.40;;;8.10;;
54408;SDS011;40315;48.620;9.828;2022-10-10T06:53:58;14.18;;;9.18;;
54408;SDS011;40315;48.620;9.828;2022-10-10T06:56:25;10.60;;;8.60;;
54408;SDS011;40315;48.620;9.828;2022-10-10T06:58:52;10.18;;;8.63;;
54408;SDS011;40315;48.620;9.828;2022-10-10T07:01:21;9.52;;;7.80;;
54408;SDS011;40315;48.620;9.828;2022-10-10T07:03:51;15.48;;;10.25;;
54408;SDS011;40315;48.620;9.828;2022-10-10T07:06:18;13.75;;;10.20;;
54408;SDS011;40315;48.620;9.828;2022-10-10T07:08:46;11.63;;;9.27;;
54408;SDS011;40315;48.620;9.828;2022-10-10T07:11:12;15.23;;;9.85;;
54408;SDS011;40315;48.620;9.828;2022-10-10T07:13:40;12.73;;;10.50;;
54408;SDS011;40315;48.620;9.828;2022-10-10T07:16:07;15.18;;;10.10;;
54408;SDS011;40315;48.620;9.828;2022-10-10T07:18:36;12.73;;;9.05;;
54408;SDS011;40315;48.620;9.828;2022-10-10T07:21:03;10.65;;;7.57;;
54408;SDS011;40315;48.620;9.828;2022-10-10T07:23:31;12.65;;;8.25;;
54408;SDS011;40315;48.620;9.828;2022-10-10T07:26:00;10.63;;;8.80;;
54408;SDS011;40315;48.620;9.828;2022-10-10T07:28:31;11.05;;;8.70;;
54408;SDS011;40315;48.620;9.828;2022-10-10T07:31:02;10.10;;;8.40;;
54408;SDS011;40315;48.620;9.828;2022-10-10T07:33:47;11.57;;;9.05;;
54408;SDS011;40315;48.620;9.828;2022-10-10T07:36:24;13.25;;;8.50;;
54408;SDS011;40315;48.620;9.828;2022-10-10T07:38:54;9.38;;;7.60;;
54408;SDS011;40315;48.620;9.828;2022-10-10T07:41:21;10.00;;;7.93;;
54408;SDS011;40315;48.620;9.828;2022-10-10T07:43:52;10.25;;;7.68;;
54408;SDS011;40315;48.620;9.828;2022-10-10T07:46:20;9.77;;;7.18;;
54408;SDS011;40315;48.620;9.828;2022-10-10T07:48:48;9.15;;;7.35;;
54408;SDS011;40315;48.620;9.828;2022-10-10T07:51:18;9.18;;;7.38;;
54408;SDS011;40315;48.620;9.828;2022-10-10T07:53:45;10.82;;;7.65;;
54408;SDS011;40315;48.620;9.828;2022-10-10T07:56:28;8.75;;;7.13;;
54408;SDS011;40315;48.620;9.828;2022-10-10T07:58:56;11.40;;;7.65;;
54408;SDS011;40315;48.620;9.828;2022-10-10T08:01:24;9.38;;;7.15;;
54408;SDS011;40315;48.620;9.828;2022-10-10T08:03:53;11.43;;;6.47;;
54408;SDS011;40315;48.620;9.828;2022-10-10T08:06:21;9.63;;;6.95;;
54408;SDS011;40315;48.620;9.828;2022-10-10T08:08:48;9.00;;;6.35;;
54408;SDS011;40315;48.620;9.828;2022-10-10T08:11:15;9.48;;;6.28;;
54408;SDS011;40315;48.620;9.828;2022-10-10T08:13:43;7.95;;;6.25;;
54408;SDS011;40315;48.620;9.828;2022-10-10T08:16:11;8.02;;;6.30;;
54408;SDS011;40315;48.620;9.828;2022-10-10T08:18:40;9.45;;;7.10;;
54408;SDS011;40315;48.620;9.828;2022-10-10T08:21:09;9.40;;;6.65;;
54408;SDS011;40315;48.620;9.828;2022-10-10T08:23:37;10.35;;;6.90;;
54408;SDS011;40315;48.620;9.828;2022-10-10T08:26:08;10.55;;;6.50;;
54408;SDS011;40315;48.620;9.828;2022-10-10T08:28:37;9.38;;;6.40;;
54408;SDS011;40315;48.620;9.828;2022-10-10T08:31:08;8.85;;;7.07;;
54408;SDS011;40315;48.620;9.828;2022-10-10T08:33:36;8.32;;;6.97;;
54408;SDS011;40315;48.620;9.828;2022-10-10T08:36:04;7.35;;;6.22;;
54408;SDS011;40315;48.620;9.828;2022-10-10T08:38:33;9.15;;;6.50;;
54408;SDS011;40315;48.620;9.828;2022-10-10T08:41:05;9.43;;;5.55;;
54408;SDS011;40315;48.620;9.828;2022-10-10T08:43:34;7.72;;;6.78;;
54408;SDS011;40315;48.620;9.828;2022-10-10T08:46:08;7.85;;;5.68;;
54408;SDS011;40315;48.620;9.828;2022-10-10T08:48:40;13.88;;;6.43;;
54408;SDS011;40315;48.620;9.828;2022-10-10T08:51:11;7.47;;;6.10;;
54408;SDS011;40315;48.620;9.828;2022-10-10T10:45:33;6.38;;;3.10;;
54408;SDS011;40315;48.620;9.828;2022-10-10T10:48:11;4.97;;;3.25;;
54408;SDS011;40315;48.620;9.828;2022-10-10T10:50:50;3.67;;;3.10;;
54408;SDS011;40315;48.620;9.828;2022-10-10T10:53:20;6.05;;;3.05;;
54408;SDS011;40315;48.620;9.828;2022-10-10T10:55:57;5.53;;;3.38;;
54408;SDS011;40315;48.620;9.828;2022-10-10T10:58:36;5.28;;;3.03;;
54408;SDS011;40315;48.620;9.828;2022-10-10T11:01:28;4.30;;;3.30;;
54408;SDS011;40315;48.620;9.828;2022-10-10T11:04:00;7.95;;;2.88;;
54408;SDS011;40315;48.620;9.828;2022-10-10T11:06:35;6.00;;;3.30;;
54408;SDS011;40315;48.620;9.828;2022-10-10T11:09:19;3.60;;;2.78;;
54408;SDS011;40315;48.620;9.828;2022-10-10T11:11:55;6.63;;;4.00;;
54408;SDS011;40315;48.620;9.828;2022-10-10T11:14:31;7.40;;;3.95;;
54408;SDS011;40315;48.620;9.828;2022-10-10T11:17:12;4.38;;;3.17;;
54408;SDS011;40315;48.620;9.828;2022-10-10T11:19:45;7.78;;;3.55;;
54408;SDS011;40315;48.620;9.828;2022-10-10T11:22:21;4.82;;;3.03;;
54408;SDS011;40315;48.620;9.828;2022-10-10T11:24:52;5.88;;;2.95;;
54408;SDS011;40315;48.620;9.828;2022-10-10T11:27:24;6.68;;;2.92;;
54408;SDS011;40315;48.620;9.828;2022-10-10T11:29:59;7.00;;;2.83;;
54408;SDS011;40315;48.620;9.828;2022-10-10T11:32:34;4.03;;;2.53;;
54408;SDS011;40315;48.620;9.828;2022-10-10T11:35:14;6.28;;;2.55;;
54408;SDS011;40315;48.620;9.828;2022-10-10T11:37:50;7.28;;;2.70;;
54408;SDS011;40315;48.620;9.828;2022-10-10T11:40:41;5.15;;;2.47;;
54408;SDS011;40315;48.620;9.828;2022-10-10T11:43:13;3.13;;;2.20;;
54408;SDS011;40315;48.620;9.828;2022-10-10T11:45:47;5.25;;;2.85;;
54408;SDS011;40315;48.620;9.828;2022-10-10T11:48:26;7.43;;;2.35;;
54408;SDS011;40315;48.620;9.828;2022-10-10T11:51:02;5.20;;;2.17;;
54408;SDS011;40315;48.620;9.828;2022-10-10T11:53:40;6.47;;;1.80;;
54408;SDS011;40315;48.620;9.828;2022-10-10T11:56:11;4.28;;;1.90;;
54408;SDS011;40315;48.620;9.828;2022-10-10T11:58:45;6.90;;;1.80;;
54408;SDS011;40315;48.620;9.828;2022-10-10T12:01:22;3.58;;;1.90;;
54408;SDS011;40315;48.620;9.828;2022-10-10T12:03:57;7.07;;;1.80;;
54408;SDS011;40315;48.620;9.828;2022-10-10T12:06:25;8.15;;;2.60;;
54408;SDS011;40315;48.620;9.828;2022-10-10T12:08:57;4.70;;;2.00;;
54408;SDS011;40315;48.620;9.828;2022-10-10T12:11:28;4.93;;;2.08;;
54408;SDS011;40315;48.620;9.828;2022-10-10T12:14:00;7.57;;;2.00;;
54408;SDS011;40315;48.620;9.828;2022-10-10T12:16:29;8.20;;;1.80;;
54408;SDS011;40315;48.620;9.828;2022-10-10T12:19:02;7.50;;;2.00;;
54408;SDS011;40315;48.620;9.828;2022-10-10T12:21:31;8.63;;;2.38;;
54408;SDS011;40315;48.620;9.828;2022-10-10T12:24:18;4.60;;;1.88;;
54408;SDS011;40315;48.620;9.828;2022-10-10T12:30:09;6.85;;;2.08;;
54408;SDS011;40315;48.620;9.828;2022-10-10T12:32:49;6.93;;;1.90;;
54408;SDS011;40315;48.620;9.828;2022-10-10T12:35:39;10.07;;;2.13;;
54408;SDS011;40315;48.620;9.828;2022-10-10T12:38:14;7.95;;;3.08;;
54408;SDS011;40315;48.620;9.828;2022-10-10T12:43:50;6.97;;;2.20;;
54408;SDS011;40315;48.620;9.828;2022-10-10T12:46:37;8.55;;;2.25;;
54408;SDS011;40315;48.620;9.828;2022-10-10T12:49:15;7.88;;;2.30;;
54408;SDS011;40315;48.620;9.828;2022-10-10T12:51:59;8.07;;;2.25;;
54408;SDS011;40315;48.620;9.828;2022-10-10T12:54:36;9.50;;;3.85;;
54408;SDS011;40315;48.620;9.828;2022-10-10T12:57:08;8.50;;;3.22;;
54408;SDS011;40315;48.620;9.828;2022-10-10T12:59:42;12.27;;;3.15;;
54408;SDS011;40315;48.620;9.828;2022-10-10T13:02:11;10.07;;;2.35;;
54408;SDS011;40315;48.620;9.828;2022-10-10T13:04:42;9.98;;;2.53;;
54408;SDS011;40315;48.620;9.828;2022-10-10T13:07:16;9.55;;;3.78;;
54408;SDS011;40315;48.620;9.828;2022-10-10T13:09:46;11.90;;;2.67;;
54408;SDS011;40315;48.620;9.828;2022-10-10T13:12:22;6.45;;;2.45;;
54408;SDS011;40315;48.620;9.828;2022-10-10T13:14:54;9.20;;;2.83;;
54408;SDS011;40315;48.620;9.828;2022-10-10T13:17:25;9.60;;;2.50;;
54408;SDS011;40315;48.620;9.828;2022-10-10T13:19:54;8.88;;;2.33;;
54408;SDS011;40315;48.620;9.828;2022-10-10T13:22:24;10.70;;;2.60;;
54408;SDS011;40315;48.620;9.828;2022-10-10T13:24:53;6.15;;;2.15;;
54408;SDS011;40315;48.620;9.828;2022-10-10T13:27:24;7.57;;;1.90;;
54408;SDS011;40315;48.620;9.828;2022-10-10T13:29:53;8.70;;;2.33;;
54408;SDS011;40315;48.620;9.828;2022-10-10T13:32:23;6.47;;;2.22;;
54408;SDS011;40315;48.620;9.828;2022-10-10T13:34:52;9.07;;;2.05;;
54408;SDS011;40315;48.620;9.828;2022-10-10T13:37:22;8.13;;;2.00;;
54408;SDS011;40315;48.620;9.828;2022-10-10T13:39:53;9.57;;;2.03;;
54408;SDS011;40315;48.620;9.828;2022-10-10T13:42:25;8.05;;;2.47;;
54408;SDS011;40315;48.620;9.828;2022-10-10T13:44:54;10.95;;;2.70;;
54408;SDS011;40315;48.620;9.828;2022-10-10T13:47:43;9.32;;;2.10;;
54408;SDS011;40315;48.620;9.828;2022-10-10T13:50:17;8.93;;;2.33;;
54408;SDS011;40315;48.620;9.828;2022-10-10T13:55:49;9.57;;;2.17;;
54408;SDS011;40315;48.620;9.828;2022-10-10T13:58:26;8.00;;;2.17;;
54408;SDS011;40315;48.620;9.828;2022-10-10T14:00:55;7.82;;;2.17;;
54408;SDS011;40315;48.620;9.828;2022-10-10T14:03:27;8.15;;;2.08;;
54408;SDS011;40315;48.620;9.828;2022-10-10T14:05:56;8.43;;;2.13;;
54408;SDS011;40315;48.620;9.828;2022-10-10T14:08:25;9.65;;;2.78;;
54408;SDS011;40315;48.620;9.828;2022-10-10T14:10:56;8.00;;;2.60;;
54408;SDS011;40315;48.620;9.828;2022-10-10T14:13:25;9.88;;;3.28;;
54408;SDS011;40315;48.620;9.828;2022-10-10T14:15:53;6.50;;;2.63;;
54408;SDS011;40315;48.620;9.828;2022-10-10T14:18:35;7.55;;;2.42;;
54408;SDS011;40315;48.620;9.828;2022-10-10T14:21:02;11.20;;;2.42;;
54408;SDS011;40315;48.620;9.828;2022-10-10T14:23:29;6.38;;;2.15;;
54408;SDS011;40315;48.620;9.828;2022-10-10T14:25:57;9.82;;;5.28;;
54408;SDS011;40315;48.620;9.828;2022-10-10T14:28:25;7.10;;;2.13;;
54408;SDS011;40315;48.620;9.828;2022-10-10T14:30:54;9.65;;;2.40;;
54408;SDS011;40315;48.620;9.828;2022-10-10T14:33:24;8.40;;;2.65;;
54408;SDS011;40315;48.620;9.828;2022-10-10T14:35:52;10.18;;;2.35;;
54408;SDS011;40315;48.620;9.828;2022-10-10T14:38:24;4.57;;;1.70;;
54408;SDS011;40315;48.620;9.828;2022-10-10T14:40:52;8.60;;;2.40;;
54408;SDS011;40315;48.620;9.828;2022-10-10T14:43:21;6.32;;;2.03;;
54408;SDS011;40315;48.620;9.828;2022-10-10T14:45:48;5.50;;;1.90;;
54408;SDS011;40315;48.620;9.828;2022-10-10T14:48:17;7.30;;;2.53;;
54408;SDS011;40315;48.620;9.828;2022-10-10T14:50:45;7.95;;;2.25;;
54408;SDS011;40315;48.620;9.828;2022-10-10T14:53:15;9.65;;;2.00;;
54408;SDS011;40315;48.620;9.828;2022-10-10T14:55:43;6.30;;;2.35;;
54408;SDS011;40315;48.620;9.828;2022-10-10T14:58:13;9.57;;;2.33;;
54408;SDS011;40315;48.620;9.828;2022-10-10T15:00:43;7.35;;;2.85;;
54408;SDS011;40315;48.620;9.828;2022-10-10T15:03:10;5.65;;;2.10;;
54408;SDS011;40315;48.620;9.828;2022-10-10T15:05:37;6.40;;;2.80;;
54408;SDS011;40315;48.620;9.828;2022-10-10T15:08:05;6.38;;;2.58;;
54408;SDS011;40315;48.620;9.828;2022-10-10T15:10:32;6.60;;;2.90;;
54408;SDS011;40315;48.620;9.828;2022-10-10T15:13:00;6.18;;;3.20;;
54408;SDS011;40315;48.620;9.828;2022-10-10T15:15:27;6.60;;;3.05;;
54408;SDS011;40315;48.620;9.828;2022-10-10T15:17:58;7.22;;;2.90;;
54408;SDS011;40315;48.620;9.828;2022-10-10T15:20:26;6.53;;;2.97;;
54408;SDS011;40315;48.620;9.828;2022-10-10T15:22:56;5.53;;;3.20;;
54408;SDS011;40315;48.620;9.828;2022-10-10T15:25:23;8.07;;;3.30;;
54408;SDS011;40315;48.620;9.828;2022-10-10T15:27:50;8.23;;;3.28;;
54408;SDS011;40315;48.620;9.828;2022-10-10T15:30:17;4.97;;;2.75;;
54408;SDS011;40315;48.620;9.828;2022-10-10T15:32:44;6.05;;;3.08;;
54408;SDS011;40315;48.620;9.828;2022-10-10T15:35:14;7.05;;;2.85;;
54408;SDS011;40315;48.620;9.828;2022-10-10T15:37:43;7.07;;;3.28;;
54408;SDS011;40315;48.620;9.828;2022-10-10T15:40:10;6.55;;;3.10;;
54408;SDS011;40315;48.620;9.828;2022-10-10T15:42:39;5.78;;;3.20;;
54408;SDS011;40315;48.620;9.828;2022-10-10T15:45:08;9.10;;;3.03;;
54408;SDS011;40315;48.620;9.828;2022-10-10T15:47:36;6.63;;;3.08;;
54408;SDS011;40315;48.620;9.828;2022-10-10T15:50:07;7.18;;;3.03;;
54408;SDS011;40315;48.620;9.828;2022-10-10T15:52:36;7.97;;;3.70;;
54408;SDS011;40315;48.620;9.828;2022-10-10T15:55:04;7.78;;;3.40;;
54408;SDS011;40315;48.620;9.828;2022-10-10T15:57:32;7.43;;;3.90;;
54408;SDS011;40315;48.620;9.828;2022-10-10T15:59:59;10.32;;;3.83;;
54408;SDS011;40315;48.620;9.828;2022-10-10T16:02:26;6.18;;;3.40;;
54408;SDS011;40315;48.620;9.828;2022-10-10T16:04:56;7.65;;;3.50;;
54408;SDS011;40315;48.620;9.828;2022-10-10T16:07:25;7.38;;;3.70;;
54408;SDS011;40315;48.620;9.828;2022-10-10T16:09:53;14.27;;;3.80;;
54408;SDS011;40315;48.620;9.828;2022-10-10T16:12:24;7.45;;;4.00;;
54408;SDS011;40315;48.620;9.828;2022-10-10T16:14:53;8.18;;;3.30;;
54408;SDS011;40315;48.620;9.828;2022-10-10T16:17:20;9.18;;;4.03;;
54408;SDS011;40315;48.620;9.828;2022-10-10T16:19:47;8.50;;;3.70;;
54408;SDS011;40315;48.620;9.828;2022-10-10T16:22:14;18.27;;;9.95;;
54408;SDS011;40315;48.620;9.828;2022-10-10T16:24:41;51.42;;;24.35;;
54408;SDS011;40315;48.620;9.828;2022-10-10T16:27:09;13.70;;;7.47;;
54408;SDS011;40315;48.620;9.828;2022-10-10T16:29:37;8.07;;;4.40;;
54408;SDS011;40315;48.620;9.828;2022-10-10T16:32:05;6.63;;;3.90;;
54408;SDS011;40315;48.620;9.828;2022-10-10T16:34:32;7.82;;;3.53;;
54408;SDS011;40315;48.620;9.828;2022-10-10T16:36:59;9.23;;;4.60;;
54408;SDS011;40315;48.620;9.828;2022-10-10T16:39:26;9.23;;;4.45;;
54408;SDS011;40315;48.620;9.828;2022-10-10T16:41:53;7.55;;;4.50;;
54408;SDS011;40315;48.620;9.828;2022-10-10T16:44:21;12.52;;;7.63;;
54408;SDS011;40315;48.620;9.828;2022-10-10T16:46:48;9.23;;;6.07;;
54408;SDS011;40315;48.620;9.828;2022-10-10T16:49:15;10.05;;;5.68;;
54408;SDS011;40315;48.620;9.828;2022-10-10T16:51:44;7.90;;;4.13;;
54408;SDS011;40315;48.620;9.828;2022-10-10T16:54:11;6.30;;;3.85;;
54408;SDS011;40315;48.620;9.828;2022-10-10T16:56:38;7.85;;;4.47;;
54408;SDS011;40315;48.620;9.828;2022-10-10T16:59:06;8.70;;;4.18;;
54408;SDS011;40315;48.620;9.828;2022-10-10T17:01:34;9.18;;;4.50;;
54408;SDS011;40315;48.620;9.828;2022-10-10T17:04:02;9.25;;;3.92;;
54408;SDS011;40315;48.620;9.828;2022-10-10T17:06:29;8.07;;;4.57;;
54408;SDS011;40315;48.620;9.828;2022-10-10T17:09:02;9.18;;;4.65;;